sensor_id;sensor_type;location;lat;lon;timestamp;P1;durP1;ratioP1;P2;durP2;ratioP2
42802;SDS011;28447;48.682;9.022;2023-02-13T05:00:29;36.43;;;15.80;;
42802;SDS011;28447;48.682;9.022;2023-02-13T05:03:08;31.00;;;15.20;;
42802;SDS011;28447;48.682;9.022;2023-02-13T05:05:35;37.23;;;15.73;;
42802;SDS011;28447;48.682;9.022;2023-02-13T05:08:02;36.10;;;15.63;;
42802;SDS011;28447;48.682;9.022;2023-02-13T05:10:28;31.00;;;14.80;;
42802;SDS011;28447;48.682;9.022;2023-02-13T05:12:54;40.57;;;17.37;;
42802;SDS011;28447;48.682;9.022;2023-02-13T05:15:20;41.47;;;17.87;;
42802;SDS011;28447;48.682;9.022;2023-02-13T05:17:47;33.07;;;16.03;;
42802;SDS011;28447;48.682;9.022;2023-02-13T05:20:14;36.63;;;16.40;;
42802;SDS011;28447;48.682;9.022;2023-02-13T05:22:44;37.30;;;15.10;;
42802;SDS011;28447;48.682;9.022;2023-02-13T05:25:29;34.03;;;16.47;;
42802;SDS011;28447;48.682;9.022;2023-02-13T05:27:56;31.70;;;16.23;;
42802;SDS011;28447;48.682;9.022;2023-02-13T05:30:21;45.40;;;16.40;;
42802;SDS011;28447;48.682;9.022;2023-02-13T05:32:47;32.90;;;16.07;;
42802;SDS011;28447;48.682;9.022;2023-02-13T05:35:15;32.87;;;14.97;;
42802;SDS011;28447;48.682;9.022;2023-02-13T05:37:44;37.70;;;16.90;;
42802;SDS011;28447;48.682;9.022;2023-02-13T05:40:10;31.60;;;14.27;;
42802;SDS011;28447;48.682;9.022;2023-02-13T05:42:37;32.80;;;15.07;;
42802;SDS011;28447;48.682;9.022;2023-02-13T05:45:04;36.23;;;15.60;;
42802;SDS011;28447;48.682;9.022;2023-02-13T05:47:30;34.20;;;15.43;;
42802;SDS011;28447;48.682;9.022;2023-02-13T05:49:55;40.17;;;16.70;;
42802;SDS011;28447;48.682;9.022;2023-02-13T05:52:21;37.13;;;16.67;;
42802;SDS011;28447;48.682;9.022;2023-02-13T05:54:47;35.63;;;15.73;;
42802;SDS011;28447;48.682;9.022;2023-02-13T05:57:12;36.07;;;16.90;;
42802;SDS011;28447;48.682;9.022;2023-02-13T05:59:38;41.03;;;17.50;;
42802;SDS011;28447;48.682;9.022;2023-02-13T06:02:03;39.60;;;16.40;;
42802;SDS011;28447;48.682;9.022;2023-02-13T06:04:29;46.47;;;18.63;;
42802;SDS011;28447;48.682;9.022;2023-02-13T06:06:55;37.13;;;17.00;;
42802;SDS011;28447;48.682;9.022;2023-02-13T06:09:20;35.00;;;17.17;;
42802;SDS011;28447;48.682;9.022;2023-02-13T06:11:46;41.73;;;16.80;;
42802;SDS011;28447;48.682;9.022;2023-02-13T06:14:12;40.27;;;17.90;;
42802;SDS011;28447;48.682;9.022;2023-02-13T06:16:38;30.77;;;16.30;;
42802;SDS011;28447;48.682;9.022;2023-02-13T06:19:05;44.70;;;17.40;;
42802;SDS011;28447;48.682;9.022;2023-02-13T06:21:31;42.30;;;17.47;;
42802;SDS011;28447;48.682;9.022;2023-02-13T06:24:01;46.50;;;19.43;;
42802;SDS011;28447;48.682;9.022;2023-02-13T06:26:28;35.70;;;18.10;;
42802;SDS011;28447;48.682;9.022;2023-02-13T06:28:54;45.53;;;19.27;;
42802;SDS011;28447;48.682;9.022;2023-02-13T06:31:19;42.37;;;17.10;;
42802;SDS011;28447;48.682;9.022;2023-02-13T06:33:45;41.87;;;19.40;;
42802;SDS011;28447;48.682;9.022;2023-02-13T06:36:11;46.20;;;18.67;;
42802;SDS011;28447;48.682;9.022;2023-02-13T06:38:37;42.70;;;18.47;;
42802;SDS011;28447;48.682;9.022;2023-02-13T06:41:02;35.77;;;17.13;;
42802;SDS011;28447;48.682;9.022;2023-02-13T06:43:28;44.63;;;16.80;;
42802;SDS011;28447;48.682;9.022;2023-02-13T06:45:54;37.87;;;16.83;;
42802;SDS011;28447;48.682;9.022;2023-02-13T06:48:20;48.30;;;19.00;;
42802;SDS011;28447;48.682;9.022;2023-02-13T06:50:45;42.57;;;17.60;;
42802;SDS011;28447;48.682;9.022;2023-02-13T06:53:11;39.40;;;18.07;;
42802;SDS011;28447;48.682;9.022;2023-02-13T06:55:37;44.27;;;18.83;;
42802;SDS011;28447;48.682;9.022;2023-02-13T06:58:05;35.27;;;17.67;;
42802;SDS011;28447;48.682;9.022;2023-02-13T07:00:31;40.20;;;18.27;;
42802;SDS011;28447;48.682;9.022;2023-02-13T07:03:03;38.23;;;18.90;;
42802;SDS011;28447;48.682;9.022;2023-02-13T07:05:30;40.10;;;19.30;;
42802;SDS011;28447;48.682;9.022;2023-02-13T07:07:56;44.07;;;19.73;;
42802;SDS011;28447;48.682;9.022;2023-02-13T07:10:22;42.20;;;18.80;;
42802;SDS011;28447;48.682;9.022;2023-02-13T07:12:48;39.30;;;18.80;;
42802;SDS011;28447;48.682;9.022;2023-02-13T07:15:14;41.40;;;19.07;;
42802;SDS011;28447;48.682;9.022;2023-02-13T07:17:40;40.03;;;18.90;;
42802;SDS011;28447;48.682;9.022;2023-02-13T07:20:06;41.00;;;20.03;;
42802;SDS011;28447;48.682;9.022;2023-02-13T07:22:32;38.67;;;19.40;;
42802;SDS011;28447;48.682;9.022;2023-02-13T07:24:59;42.33;;;20.43;;
42802;SDS011;28447;48.682;9.022;2023-02-13T07:27:25;39.03;;;19.40;;
42802;SDS011;28447;48.682;9.022;2023-02-13T07:29:53;49.97;;;20.00;;
42802;SDS011;28447;48.682;9.022;2023-02-13T07:32:22;41.30;;;18.30;;
42802;SDS011;28447;48.682;9.022;2023-02-13T07:34:49;46.93;;;19.93;;
42802;SDS011;28447;48.682;9.022;2023-02-13T07:37:14;44.93;;;18.60;;
42802;SDS011;28447;48.682;9.022;2023-02-13T07:39:40;35.33;;;17.40;;
42802;SDS011;28447;48.682;9.022;2023-02-13T07:42:06;42.43;;;18.50;;
42802;SDS011;28447;48.682;9.022;2023-02-13T07:44:31;44.73;;;19.63;;
42802;SDS011;28447;48.682;9.022;2023-02-13T07:46:57;42.90;;;19.77;;
42802;SDS011;28447;48.682;9.022;2023-02-13T07:49:24;41.93;;;18.60;;
42802;SDS011;28447;48.682;9.022;2023-02-13T07:51:49;43.33;;;19.30;;
42802;SDS011;28447;48.682;9.022;2023-02-13T07:54:15;45.30;;;19.80;;
42802;SDS011;28447;48.682;9.022;2023-02-13T07:56:41;42.13;;;20.23;;
42802;SDS011;28447;48.682;9.022;2023-02-13T07:59:06;42.53;;;18.23;;
42802;SDS011;28447;48.682;9.022;2023-02-13T08:01:32;39.40;;;19.70;;
42802;SDS011;28447;48.682;9.022;2023-02-13T08:03:58;42.70;;;20.17;;
42802;SDS011;28447;48.682;9.022;2023-02-13T08:06:23;41.43;;;20.10;;
42802;SDS011;28447;48.682;9.022;2023-02-13T08:08:49;44.57;;;22.07;;
42802;SDS011;28447;48.682;9.022;2023-02-13T08:11:35;45.17;;;20.00;;
42802;SDS011;28447;48.682;9.022;2023-02-13T08:14:19;43.83;;;20.80;;
42802;SDS011;28447;48.682;9.022;2023-02-13T08:16:49;43.77;;;20.10;;
42802;SDS011;28447;48.682;9.022;2023-02-13T08:19:16;42.97;;;19.70;;
42802;SDS011;28447;48.682;9.022;2023-02-13T08:21:42;52.83;;;19.60;;
42802;SDS011;28447;48.682;9.022;2023-02-13T08:24:08;39.13;;;18.93;;
42802;SDS011;28447;48.682;9.022;2023-02-13T08:26:34;32.13;;;15.73;;
42802;SDS011;28447;48.682;9.022;2023-02-13T08:29:00;33.70;;;15.20;;
42802;SDS011;28447;48.682;9.022;2023-02-13T08:31:27;26.37;;;13.83;;
42802;SDS011;28447;48.682;9.022;2023-02-13T08:33:54;25.83;;;14.90;;
42802;SDS011;28447;48.682;9.022;2023-02-13T08:36:20;23.17;;;13.53;;
42802;SDS011;28447;48.682;9.022;2023-02-13T08:38:46;28.83;;;14.70;;
42802;SDS011;28447;48.682;9.022;2023-02-13T08:41:12;31.93;;;14.97;;
42802;SDS011;28447;48.682;9.022;2023-02-13T08:43:38;28.03;;;15.60;;
42802;SDS011;28447;48.682;9.022;2023-02-13T08:46:03;28.33;;;13.93;;
42802;SDS011;28447;48.682;9.022;2023-02-13T08:48:29;28.60;;;14.60;;
42802;SDS011;28447;48.682;9.022;2023-02-13T08:50:55;25.20;;;13.57;;
42802;SDS011;28447;48.682;9.022;2023-02-13T08:53:20;23.33;;;12.80;;
42802;SDS011;28447;48.682;9.022;2023-02-13T08:55:56;21.50;;;12.00;;
42802;SDS011;28447;48.682;9.022;2023-02-13T08:58:22;22.93;;;12.73;;
42802;SDS011;28447;48.682;9.022;2023-02-13T09:00:48;24.23;;;13.67;;
42802;SDS011;28447;48.682;9.022;2023-02-13T09:03:14;24.10;;;14.37;;
42802;SDS011;28447;48.682;9.022;2023-02-13T09:05:40;24.00;;;13.80;;
42802;SDS011;28447;48.682;9.022;2023-02-13T09:08:06;20.07;;;12.80;;
42802;SDS011;28447;48.682;9.022;2023-02-13T09:10:32;23.55;;;11.90;;
42802;SDS011;28447;48.682;9.022;2023-02-13T09:12:58;22.67;;;12.40;;
42802;SDS011;28447;48.682;9.022;2023-02-13T09:15:25;21.73;;;12.13;;
42802;SDS011;28447;48.682;9.022;2023-02-13T09:17:51;24.57;;;12.70;;
42802;SDS011;28447;48.682;9.022;2023-02-13T09:20:17;20.70;;;12.30;;
42802;SDS011;28447;48.682;9.022;2023-02-13T09:22:43;21.03;;;11.47;;
42802;SDS011;28447;48.682;9.022;2023-02-13T09:25:09;21.00;;;12.57;;
42802;SDS011;28447;48.682;9.022;2023-02-13T09:27:35;20.87;;;11.03;;
42802;SDS011;28447;48.682;9.022;2023-02-13T09:30:03;24.00;;;12.20;;
42802;SDS011;28447;48.682;9.022;2023-02-13T09:32:30;21.90;;;11.83;;
42802;SDS011;28447;48.682;9.022;2023-02-13T09:34:55;27.00;;;12.67;;
42802;SDS011;28447;48.682;9.022;2023-02-13T09:37:21;19.83;;;11.33;;
42802;SDS011;28447;48.682;9.022;2023-02-13T09:39:47;18.10;;;10.87;;
42802;SDS011;28447;48.682;9.022;2023-02-13T09:42:23;19.00;;;11.03;;
42802;SDS011;28447;48.682;9.022;2023-02-13T09:44:53;17.90;;;10.97;;
42802;SDS011;28447;48.682;9.022;2023-02-13T09:47:31;20.07;;;11.50;;
42802;SDS011;28447;48.682;9.022;2023-02-13T09:52:32;22.73;;;11.97;;
42802;SDS011;28447;48.682;9.022;2023-02-13T09:55:00;19.97;;;11.37;;
42802;SDS011;28447;48.682;9.022;2023-02-13T09:57:31;15.37;;;10.10;;
42802;SDS011;28447;48.682;9.022;2023-02-13T10:08:17;16.00;;;10.70;;
42802;SDS011;28447;48.682;9.022;2023-02-13T10:16:45;23.60;;;12.23;;
42802;SDS011;28447;48.682;9.022;2023-02-13T10:22:22;16.30;;;10.73;;
42802;SDS011;28447;48.682;9.022;2023-02-13T10:24:54;16.63;;;10.97;;
42802;SDS011;28447;48.682;9.022;2023-02-13T10:27:27;16.10;;;9.47;;
42802;SDS011;28447;48.682;9.022;2023-02-13T10:30:15;18.93;;;11.40;;
42802;SDS011;28447;48.682;9.022;2023-02-13T10:32:53;18.03;;;10.67;;
42802;SDS011;28447;48.682;9.022;2023-02-13T10:35:42;17.73;;;10.27;;
42802;SDS011;28447;48.682;9.022;2023-02-13T10:38:21;15.60;;;10.50;;
42802;SDS011;28447;48.682;9.022;2023-02-13T10:43:23;17.90;;;10.90;;
42802;SDS011;28447;48.682;9.022;2023-02-13T10:45:56;20.80;;;12.00;;
42802;SDS011;28447;48.682;9.022;2023-02-13T10:49:02;15.00;;;10.37;;
42802;SDS011;28447;48.682;9.022;2023-02-13T10:51:54;17.93;;;10.87;;
42802;SDS011;28447;48.682;9.022;2023-02-13T10:54:58;15.23;;;9.70;;
42802;SDS011;28447;48.682;9.022;2023-02-13T10:57:47;16.10;;;9.87;;
42802;SDS011;28447;48.682;9.022;2023-02-13T11:01:15;17.40;;;9.90;;
42802;SDS011;28447;48.682;9.022;2023-02-13T11:03:21;17.23;;;10.50;;
42802;SDS011;28447;48.682;9.022;2023-02-13T11:05:48;14.50;;;9.60;;
42802;SDS011;28447;48.682;9.022;2023-02-13T11:10:47;16.17;;;9.20;;
42802;SDS011;28447;48.682;9.022;2023-02-13T11:13:15;12.67;;;8.83;;
42802;SDS011;28447;48.682;9.022;2023-02-13T11:15:41;17.33;;;10.20;;
42802;SDS011;28447;48.682;9.022;2023-02-13T11:18:20;13.13;;;9.57;;
42802;SDS011;28447;48.682;9.022;2023-02-13T11:20:47;12.77;;;9.00;;
42802;SDS011;28447;48.682;9.022;2023-02-13T11:26:39;11.50;;;8.90;;
42802;SDS011;28447;48.682;9.022;2023-02-13T11:29:05;13.90;;;9.43;;
42802;SDS011;28447;48.682;9.022;2023-02-13T11:31:42;14.50;;;9.60;;
42802;SDS011;28447;48.682;9.022;2023-02-13T11:39:37;12.40;;;8.80;;
42802;SDS011;28447;48.682;9.022;2023-02-13T11:42:14;12.60;;;9.03;;
42802;SDS011;28447;48.682;9.022;2023-02-13T11:45:14;12.47;;;9.57;;
42802;SDS011;28447;48.682;9.022;2023-02-13T11:47:45;13.50;;;9.10;;
42802;SDS011;28447;48.682;9.022;2023-02-13T11:53:20;10.30;;;8.57;;
42802;SDS011;28447;48.682;9.022;2023-02-13T11:56:00;13.40;;;9.00;;
42802;SDS011;28447;48.682;9.022;2023-02-13T11:58:27;11.87;;;8.73;;
42802;SDS011;28447;48.682;9.022;2023-02-13T12:03:48;11.40;;;8.00;;
42802;SDS011;28447;48.682;9.022;2023-02-13T12:06:38;10.20;;;8.07;;
42802;SDS011;28447;48.682;9.022;2023-02-13T12:09:13;9.10;;;7.37;;
42802;SDS011;28447;48.682;9.022;2023-02-13T12:11:41;9.53;;;7.93;;
42802;SDS011;28447;48.682;9.022;2023-02-13T12:14:20;11.20;;;8.00;;
42802;SDS011;28447;48.682;9.022;2023-02-13T12:16:54;10.27;;;7.87;;
42802;SDS011;28447;48.682;9.022;2023-02-13T12:19:42;9.60;;;7.80;;
42802;SDS011;28447;48.682;9.022;2023-02-13T12:37:51;12.17;;;8.13;;
42802;SDS011;28447;48.682;9.022;2023-02-13T12:51:19;10.20;;;7.37;;
42802;SDS011;28447;48.682;9.022;2023-02-13T12:54:17;15.23;;;7.47;;
42802;SDS011;28447;48.682;9.022;2023-02-13T12:57:05;10.00;;;8.00;;
42802;SDS011;28447;48.682;9.022;2023-02-13T12:59:48;8.20;;;7.30;;
42802;SDS011;28447;48.682;9.022;2023-02-13T13:16:18;6.50;;;5.90;;
42802;SDS011;28447;48.682;9.022;2023-02-13T13:22:04;6.20;;;5.60;;
42802;SDS011;28447;48.682;9.022;2023-02-13T13:27:24;7.10;;;6.40;;
42802;SDS011;28447;48.682;9.022;2023-02-13T13:29:55;7.17;;;6.20;;
42802;SDS011;28447;48.682;9.022;2023-02-13T13:32:27;7.00;;;6.30;;
42802;SDS011;28447;48.682;9.022;2023-02-13T13:34:55;7.10;;;5.97;;
42802;SDS011;28447;48.682;9.022;2023-02-13T13:42:50;8.50;;;7.30;;
42802;SDS011;28447;48.682;9.022;2023-02-13T13:45:41;8.83;;;7.03;;
42802;SDS011;28447;48.682;9.022;2023-02-13T13:51:13;7.53;;;6.60;;
42802;SDS011;28447;48.682;9.022;2023-02-13T13:56:25;10.70;;;7.93;;
42802;SDS011;28447;48.682;9.022;2023-02-13T14:04:59;8.33;;;7.30;;
42802;SDS011;28447;48.682;9.022;2023-02-13T14:07:44;9.93;;;7.70;;
42802;SDS011;28447;48.682;9.022;2023-02-13T14:12:47;8.23;;;7.43;;
42802;SDS011;28447;48.682;9.022;2023-02-13T14:17:59;8.77;;;7.77;;
42802;SDS011;28447;48.682;9.022;2023-02-13T14:20:32;9.57;;;8.33;;
42802;SDS011;28447;48.682;9.022;2023-02-13T14:23:11;10.27;;;8.27;;
42802;SDS011;28447;48.682;9.022;2023-02-13T14:29:04;9.33;;;8.43;;
42802;SDS011;28447;48.682;9.022;2023-02-13T14:31:39;9.90;;;8.10;;
42802;SDS011;28447;48.682;9.022;2023-02-13T14:36:57;10.67;;;8.50;;
42802;SDS011;28447;48.682;9.022;2023-02-13T14:39:32;11.60;;;8.80;;
42802;SDS011;28447;48.682;9.022;2023-02-13T14:44:50;12.53;;;8.57;;
42802;SDS011;28447;48.682;9.022;2023-02-13T14:49:51;10.53;;;8.03;;
42802;SDS011;28447;48.682;9.022;2023-02-13T14:52:18;10.50;;;9.17;;
42802;SDS011;28447;48.682;9.022;2023-02-13T14:57:37;11.40;;;10.00;;
42802;SDS011;28447;48.682;9.022;2023-02-13T15:00:25;10.67;;;9.57;;
42802;SDS011;28447;48.682;9.022;2023-02-13T15:03:01;11.17;;;10.07;;
42802;SDS011;28447;48.682;9.022;2023-02-13T15:05:51;10.27;;;9.27;;
42802;SDS011;28447;48.682;9.022;2023-02-13T15:08:21;11.53;;;9.10;;
42802;SDS011;28447;48.682;9.022;2023-02-13T15:10:55;12.13;;;9.30;;
42802;SDS011;28447;48.682;9.022;2023-02-13T15:13:31;10.83;;;9.33;;
42802;SDS011;28447;48.682;9.022;2023-02-13T15:15:59;12.37;;;9.63;;
42802;SDS011;28447;48.682;9.022;2023-02-13T15:18:42;12.30;;;9.83;;
42802;SDS011;28447;48.682;9.022;2023-02-13T15:21:13;11.33;;;10.13;;
42802;SDS011;28447;48.682;9.022;2023-02-13T15:23:42;10.63;;;9.07;;
42802;SDS011;28447;48.682;9.022;2023-02-13T15:26:18;14.03;;;10.10;;
42802;SDS011;28447;48.682;9.022;2023-02-13T15:28:56;15.47;;;10.40;;
42802;SDS011;28447;48.682;9.022;2023-02-13T15:31:24;12.80;;;10.17;;
42802;SDS011;28447;48.682;9.022;2023-02-13T15:33:53;14.13;;;11.10;;
42802;SDS011;28447;48.682;9.022;2023-02-13T15:36:20;14.30;;;10.50;;
42802;SDS011;28447;48.682;9.022;2023-02-13T15:38:55;12.50;;;9.93;;
42802;SDS011;28447;48.682;9.022;2023-02-13T15:41:23;14.97;;;11.63;;
42802;SDS011;28447;48.682;9.022;2023-02-13T15:43:57;14.27;;;10.67;;
42802;SDS011;28447;48.682;9.022;2023-02-13T15:48:53;16.60;;;12.30;;
42802;SDS011;28447;48.682;9.022;2023-02-13T15:51:22;16.00;;;12.20;;
42802;SDS011;28447;48.682;9.022;2023-02-13T15:53:57;15.50;;;11.80;;
42802;SDS011;28447;48.682;9.022;2023-02-13T15:56:27;14.00;;;11.00;;
42802;SDS011;28447;48.682;9.022;2023-02-13T15:58:55;17.00;;;12.00;;
42802;SDS011;28447;48.682;9.022;2023-02-13T16:01:22;18.20;;;12.17;;
42802;SDS011;28447;48.682;9.022;2023-02-13T16:03:49;20.17;;;13.13;;
42802;SDS011;28447;48.682;9.022;2023-02-13T16:06:20;20.93;;;14.80;;
42802;SDS011;28447;48.682;9.022;2023-02-13T16:08:55;19.73;;;13.80;;
42802;SDS011;28447;48.682;9.022;2023-02-13T16:11:25;19.00;;;11.90;;
42802;SDS011;28447;48.682;9.022;2023-02-13T16:16:19;21.37;;;13.37;;
42802;SDS011;28447;48.682;9.022;2023-02-13T16:18:49;23.43;;;12.00;;
42802;SDS011;28447;48.682;9.022;2023-02-13T16:21:15;16.40;;;11.33;;
42802;SDS011;28447;48.682;9.022;2023-02-13T16:23:46;21.27;;;11.90;;
42802;SDS011;28447;48.682;9.022;2023-02-13T16:26:12;19.33;;;12.20;;
42802;SDS011;28447;48.682;9.022;2023-02-13T16:28:40;22.00;;;14.00;;
42802;SDS011;28447;48.682;9.022;2023-02-13T16:31:13;19.57;;;11.93;;
42802;SDS011;28447;48.682;9.022;2023-02-13T16:33:41;27.07;;;13.37;;
42802;SDS011;28447;48.682;9.022;2023-02-13T16:38:39;17.80;;;11.00;;
42802;SDS011;28447;48.682;9.022;2023-02-13T16:43:45;17.50;;;10.50;;
42802;SDS011;28447;48.682;9.022;2023-02-13T16:46:19;21.40;;;11.40;;
42802;SDS011;28447;48.682;9.022;2023-02-13T16:56:41;19.50;;;11.80;;
42802;SDS011;28447;48.682;9.022;2023-02-13T16:59:19;17.80;;;11.27;;
42802;SDS011;28447;48.682;9.022;2023-02-13T17:02:02;19.43;;;11.20;;
42802;SDS011;28447;48.682;9.022;2023-02-13T17:04:36;18.27;;;10.43;;
42802;SDS011;28447;48.682;9.022;2023-02-13T17:07:03;14.70;;;10.10;;
42802;SDS011;28447;48.682;9.022;2023-02-13T17:09:35;15.70;;;10.63;;
42802;SDS011;28447;48.682;9.022;2023-02-13T17:12:00;25.23;;;15.30;;
42802;SDS011;28447;48.682;9.022;2023-02-13T17:14:26;21.03;;;12.67;;
42802;SDS011;28447;48.682;9.022;2023-02-13T17:16:52;29.80;;;13.23;;
42802;SDS011;28447;48.682;9.022;2023-02-13T17:19:17;25.63;;;13.30;;
42802;SDS011;28447;48.682;9.022;2023-02-13T17:21:43;22.17;;;12.90;;
42802;SDS011;28447;48.682;9.022;2023-02-13T17:24:12;25.00;;;13.40;;
42802;SDS011;28447;48.682;9.022;2023-02-13T17:26:42;24.10;;;12.60;;
42802;SDS011;28447;48.682;9.022;2023-02-13T17:29:07;21.73;;;12.63;;
42802;SDS011;28447;48.682;9.022;2023-02-13T17:31:33;22.30;;;13.17;;
42802;SDS011;28447;48.682;9.022;2023-02-13T17:33:58;18.43;;;13.50;;
42802;SDS011;28447;48.682;9.022;2023-02-13T17:36:28;22.23;;;13.70;;
42802;SDS011;28447;48.682;9.022;2023-02-13T17:38:56;23.13;;;13.27;;
42802;SDS011;28447;48.682;9.022;2023-02-13T17:41:21;19.00;;;11.77;;
42802;SDS011;28447;48.682;9.022;2023-02-13T17:43:48;28.93;;;13.60;;
42802;SDS011;28447;48.682;9.022;2023-02-13T17:46:15;21.80;;;13.20;;
42802;SDS011;28447;48.682;9.022;2023-02-13T17:48:57;22.73;;;12.93;;
42802;SDS011;28447;48.682;9.022;2023-02-13T17:51:28;22.10;;;12.40;;
42802;SDS011;28447;48.682;9.022;2023-02-13T17:53:55;24.00;;;13.53;;
42802;SDS011;28447;48.682;9.022;2023-02-13T17:56:21;29.30;;;16.90;;
42802;SDS011;28447;48.682;9.022;2023-02-13T17:58:46;28.83;;;16.53;;
42802;SDS011;28447;48.682;9.022;2023-02-13T18:01:12;24.43;;;14.47;;
42802;SDS011;28447;48.682;9.022;2023-02-13T18:03:38;28.03;;;12.87;;
42802;SDS011;28447;48.682;9.022;2023-02-13T18:06:04;23.60;;;12.30;;
42802;SDS011;28447;48.682;9.022;2023-02-13T18:08:31;23.43;;;12.50;;
42802;SDS011;28447;48.682;9.022;2023-02-13T18:10:57;20.00;;;11.17;;
42802;SDS011;28447;48.682;9.022;2023-02-13T18:13:25;19.77;;;11.57;;
42802;SDS011;28447;48.682;9.022;2023-02-13T18:15:50;22.70;;;12.13;;
42802;SDS011;28447;48.682;9.022;2023-02-13T18:18:16;22.03;;;11.40;;
42802;SDS011;28447;48.682;9.022;2023-02-13T18:20:42;19.27;;;10.83;;
42802;SDS011;28447;48.682;9.022;2023-02-13T18:23:08;18.07;;;11.27;;
42802;SDS011;28447;48.682;9.022;2023-02-13T18:25:34;27.43;;;12.80;;
42802;SDS011;28447;48.682;9.022;2023-02-13T18:28:00;23.67;;;12.10;;
42802;SDS011;28447;48.682;9.022;2023-02-13T18:30:26;24.10;;;12.57;;
42802;SDS011;28447;48.682;9.022;2023-02-13T18:32:52;21.80;;;12.53;;
42802;SDS011;28447;48.682;9.022;2023-02-13T18:35:19;21.50;;;12.07;;
42802;SDS011;28447;48.682;9.022;2023-02-13T18:37:46;21.53;;;11.67;;
42802;SDS011;28447;48.682;9.022;2023-02-13T18:40:12;20.97;;;11.70;;
42802;SDS011;28447;48.682;9.022;2023-02-13T18:42:41;26.90;;;12.67;;
42802;SDS011;28447;48.682;9.022;2023-02-13T18:45:08;23.07;;;12.07;;
42802;SDS011;28447;48.682;9.022;2023-02-13T18:47:36;22.97;;;12.33;;
42802;SDS011;28447;48.682;9.022;2023-02-13T18:50:01;21.60;;;12.87;;
42802;SDS011;28447;48.682;9.022;2023-02-13T18:52:28;22.50;;;13.83;;
42802;SDS011;28447;48.682;9.022;2023-02-13T18:54:53;29.67;;;15.03;;
42802;SDS011;28447;48.682;9.022;2023-02-13T18:57:19;29.40;;;16.03;;
42802;SDS011;28447;48.682;9.022;2023-02-13T18:59:46;28.70;;;13.00;;
42802;SDS011;28447;48.682;9.022;2023-02-13T19:02:12;27.17;;;14.30;;
42802;SDS011;28447;48.682;9.022;2023-02-13T19:04:38;24.50;;;15.80;;
42802;SDS011;28447;48.682;9.022;2023-02-13T19:07:03;24.33;;;14.90;;
42802;SDS011;28447;48.682;9.022;2023-02-13T19:09:29;25.43;;;14.80;;
42802;SDS011;28447;48.682;9.022;2023-02-13T19:11:55;27.50;;;15.80;;
42802;SDS011;28447;48.682;9.022;2023-02-13T19:14:22;27.60;;;14.17;;
42802;SDS011;28447;48.682;9.022;2023-02-13T19:16:49;29.10;;;16.07;;
42802;SDS011;28447;48.682;9.022;2023-02-13T19:19:16;24.33;;;14.70;;
42802;SDS011;28447;48.682;9.022;2023-02-13T19:21:42;26.00;;;14.83;;
42802;SDS011;28447;48.682;9.022;2023-02-13T19:24:09;29.07;;;15.77;;
42802;SDS011;28447;48.682;9.022;2023-02-13T19:26:35;33.13;;;15.60;;
42802;SDS011;28447;48.682;9.022;2023-02-13T19:29:02;26.83;;;14.40;;
42802;SDS011;28447;48.682;9.022;2023-02-13T19:31:28;23.80;;;13.90;;
42802;SDS011;28447;48.682;9.022;2023-02-13T19:33:55;37.17;;;19.37;;
42802;SDS011;28447;48.682;9.022;2023-02-13T19:36:22;34.87;;;18.80;;
42802;SDS011;28447;48.682;9.022;2023-02-13T19:38:55;32.40;;;18.37;;
42802;SDS011;28447;48.682;9.022;2023-02-13T19:41:22;23.83;;;14.27;;
42802;SDS011;28447;48.682;9.022;2023-02-13T19:43:48;20.80;;;13.43;;
42802;SDS011;28447;48.682;9.022;2023-02-13T19:46:15;24.20;;;12.80;;
42802;SDS011;28447;48.682;9.022;2023-02-13T19:48:43;24.77;;;14.27;;
42802;SDS011;28447;48.682;9.022;2023-02-13T19:51:11;20.73;;;12.83;;
42802;SDS011;28447;48.682;9.022;2023-02-13T19:53:38;21.47;;;11.80;;
42802;SDS011;28447;48.682;9.022;2023-02-13T19:56:04;24.33;;;12.97;;
42802;SDS011;28447;48.682;9.022;2023-02-13T19:58:31;27.70;;;12.90;;
42802;SDS011;28447;48.682;9.022;2023-02-13T20:01:06;21.63;;;12.17;;
42802;SDS011;28447;48.682;9.022;2023-02-13T20:03:33;22.17;;;13.50;;
42802;SDS011;28447;48.682;9.022;2023-02-13T20:06:03;22.60;;;12.47;;
42802;SDS011;28447;48.682;9.022;2023-02-13T20:08:30;21.10;;;12.77;;
42802;SDS011;28447;48.682;9.022;2023-02-13T20:10:56;22.97;;;11.83;;
42802;SDS011;28447;48.682;9.022;2023-02-13T20:13:22;22.90;;;12.50;;
42802;SDS011;28447;48.682;9.022;2023-02-13T20:15:47;19.27;;;11.43;;
42802;SDS011;28447;48.682;9.022;2023-02-13T20:18:13;18.90;;;11.27;;
42802;SDS011;28447;48.682;9.022;2023-02-13T20:20:41;26.80;;;13.40;;
42802;SDS011;28447;48.682;9.022;2023-02-13T20:23:07;25.00;;;14.00;;
42802;SDS011;28447;48.682;9.022;2023-02-13T20:25:33;22.83;;;12.30;;
42802;SDS011;28447;48.682;9.022;2023-02-13T20:27:59;23.77;;;13.47;;
42802;SDS011;28447;48.682;9.022;2023-02-13T20:30:24;25.00;;;13.37;;
42802;SDS011;28447;48.682;9.022;2023-02-13T20:32:50;27.93;;;14.00;;
42802;SDS011;28447;48.682;9.022;2023-02-13T20:35:16;25.07;;;13.17;;
42802;SDS011;28447;48.682;9.022;2023-02-13T20:37:41;24.67;;;13.10;;
42802;SDS011;28447;48.682;9.022;2023-02-13T20:40:07;22.60;;;12.83;;
42802;SDS011;28447;48.682;9.022;2023-02-13T20:42:33;21.57;;;11.90;;
42802;SDS011;28447;48.682;9.022;2023-02-13T20:44:59;23.03;;;12.67;;
42802;SDS011;28447;48.682;9.022;2023-02-13T20:47:25;22.60;;;12.50;;
42802;SDS011;28447;48.682;9.022;2023-02-13T20:49:51;27.70;;;13.67;;
42802;SDS011;28447;48.682;9.022;2023-02-13T20:52:17;22.53;;;13.07;;
42802;SDS011;28447;48.682;9.022;2023-02-13T20:54:42;28.87;;;14.90;;
42802;SDS011;28447;48.682;9.022;2023-02-13T20:57:08;30.93;;;17.83;;
42802;SDS011;28447;48.682;9.022;2023-02-13T20:59:34;36.53;;;20.10;;
42802;SDS011;28447;48.682;9.022;2023-02-13T21:01:59;30.33;;;18.23;;
42802;SDS011;28447;48.682;9.022;2023-02-13T21:04:25;30.83;;;18.47;;
42802;SDS011;28447;48.682;9.022;2023-02-13T21:06:53;28.30;;;16.03;;
42802;SDS011;28447;48.682;9.022;2023-02-13T21:09:19;26.00;;;16.83;;
42802;SDS011;28447;48.682;9.022;2023-02-13T21:11:45;25.10;;;14.40;;
42802;SDS011;28447;48.682;9.022;2023-02-13T21:14:11;27.03;;;13.60;;
42802;SDS011;28447;48.682;9.022;2023-02-13T21:16:38;25.80;;;15.03;;
42802;SDS011;28447;48.682;9.022;2023-02-13T21:19:10;30.87;;;15.70;;
42802;SDS011;28447;48.682;9.022;2023-02-13T21:21:38;24.50;;;13.70;;
42802;SDS011;28447;48.682;9.022;2023-02-13T21:24:09;24.80;;;15.67;;
42802;SDS011;28447;48.682;9.022;2023-02-13T21:26:40;27.90;;;13.03;;
42802;SDS011;28447;48.682;9.022;2023-02-13T21:29:06;24.53;;;12.97;;
42802;SDS011;28447;48.682;9.022;2023-02-13T21:31:33;28.57;;;15.30;;
42802;SDS011;28447;48.682;9.022;2023-02-13T21:34:11;27.57;;;15.73;;
42802;SDS011;28447;48.682;9.022;2023-02-13T21:36:37;30.50;;;14.50;;
42802;SDS011;28447;48.682;9.022;2023-02-13T21:39:04;31.97;;;14.27;;
42802;SDS011;28447;48.682;9.022;2023-02-13T21:41:31;26.40;;;14.20;;
42802;SDS011;28447;48.682;9.022;2023-02-13T21:43:57;33.67;;;15.27;;
42802;SDS011;28447;48.682;9.022;2023-02-13T21:46:24;25.70;;;13.50;;
42802;SDS011;28447;48.682;9.022;2023-02-13T21:48:52;29.60;;;14.17;;
42802;SDS011;28447;48.682;9.022;2023-02-13T21:51:19;28.80;;;15.30;;
42802;SDS011;28447;48.682;9.022;2023-02-13T21:53:46;31.00;;;16.03;;
42802;SDS011;28447;48.682;9.022;2023-02-13T21:56:14;39.00;;;17.30;;